sensor_id;sensor_type;location;lat;lon;timestamp;temperature;humidity
39665;DHT22;26679;50.872;4.332;2023-11-22T00:01:11;20.20;79.40
39665;DHT22;26679;50.872;4.332;2023-11-22T00:03:37;20.20;79.40
39665;DHT22;26679;50.872;4.332;2023-11-22T00:06:02;20.10;79.40
39665;DHT22;26679;50.872;4.332;2023-11-22T00:08:28;20.10;79.40
39665;DHT22;26679;50.872;4.332;2023-11-22T00:10:54;20.10;79.50
39665;DHT22;26679;50.872;4.332;2023-11-22T00:13:20;20.10;79.50
39665;DHT22;26679;50.872;4.332;2023-11-22T00:15:45;20.10;79.40
39665;DHT22;26679;50.872;4.332;2023-11-22T00:18:11;20.00;79.40
39665;DHT22;26679;50.872;4.332;2023-11-22T00:20:36;20.00;79.40
39665;DHT22;26679;50.872;4.332;2023-11-22T00:23:02;20.00;79.40
39665;DHT22;26679;50.872;4.332;2023-11-22T00:25:28;20.00;79.40
39665;DHT22;26679;50.872;4.332;2023-11-22T00:27:54;20.00;79.40
39665;DHT22;26679;50.872;4.332;2023-11-22T00:30:20;20.00;79.40
39665;DHT22;26679;50.872;4.332;2023-11-22T00:32:46;19.90;79.30
39665;DHT22;26679;50.872;4.332;2023-11-22T00:35:11;19.90;79.40
39665;DHT22;26679;50.872;4.332;2023-11-22T00:37:37;19.90;79.40
39665;DHT22;26679;50.872;4.332;2023-11-22T00:40:03;19.90;79.80
39665;DHT22;26679;50.872;4.332;2023-11-22T00:42:36;19.80;79.20
39665;DHT22;26679;50.872;4.332;2023-11-22T00:45:03;19.80;79.20
39665;DHT22;26679;50.872;4.332;2023-11-22T00:47:31;19.80;79.20
39665;DHT22;26679;50.872;4.332;2023-11-22T00:49:56;19.80;79.30
39665;DHT22;26679;50.872;4.332;2023-11-22T00:52:22;19.80;79.30
39665;DHT22;26679;50.872;4.332;2023-11-22T00:54:48;19.80;79.30
39665;DHT22;26679;50.872;4.332;2023-11-22T00:57:14;19.80;79.30
39665;DHT22;26679;50.872;4.332;2023-11-22T00:59:39;19.70;79.30
39665;DHT22;26679;50.872;4.332;2023-11-22T01:02:05;19.70;79.30
39665;DHT22;26679;50.872;4.332;2023-11-22T01:04:30;19.70;79.90
39665;DHT22;26679;50.872;4.332;2023-11-22T01:06:59;19.70;79.40
39665;DHT22;26679;50.872;4.332;2023-11-22T01:09:24;19.60;79.30
39665;DHT22;26679;50.872;4.332;2023-11-22T01:11:50;19.60;79.20
39665;DHT22;26679;50.872;4.332;2023-11-22T01:14:15;19.60;79.20
39665;DHT22;26679;50.872;4.332;2023-11-22T01:16:41;19.60;79.20
39665;DHT22;26679;50.872;4.332;2023-11-22T01:19:08;19.60;79.20
39665;DHT22;26679;50.872;4.332;2023-11-22T01:21:34;19.60;79.20
39665;DHT22;26679;50.872;4.332;2023-11-22T01:23:59;19.60;79.20
39665;DHT22;26679;50.872;4.332;2023-11-22T01:26:26;19.50;79.10
39665;DHT22;26679;50.872;4.332;2023-11-22T01:28:51;19.50;79.10
39665;DHT22;26679;50.872;4.332;2023-11-22T01:31:17;19.50;79.20
39665;DHT22;26679;50.872;4.332;2023-11-22T01:33:46;19.40;79.10
39665;DHT22;26679;50.872;4.332;2023-11-22T01:36:12;19.40;79.10
39665;DHT22;26679;50.872;4.332;2023-11-22T01:38:37;19.40;79.10
39665;DHT22;26679;50.872;4.332;2023-11-22T01:41:04;19.40;79.10
39665;DHT22;26679;50.872;4.332;2023-11-22T01:43:30;19.40;79.10
39665;DHT22;26679;50.872;4.332;2023-11-22T01:45:56;19.40;79.10
39665;DHT22;26679;50.872;4.332;2023-11-22T01:50:47;19.30;79.00
39665;DHT22;26679;50.872;4.332;2023-11-22T01:53:13;19.30;79.00
39665;DHT22;26679;50.872;4.332;2023-11-22T01:55:42;19.30;79.00
39665;DHT22;26679;50.872;4.332;2023-11-22T01:58:07;19.30;79.00
39665;DHT22;26679;50.872;4.332;2023-11-22T02:00:41;19.30;79.10
39665;DHT22;26679;50.872;4.332;2023-11-22T02:03:07;19.30;79.10
39665;DHT22;26679;50.872;4.332;2023-11-22T02:05:32;19.30;79.00
39665;DHT22;26679;50.872;4.332;2023-11-22T02:07:58;19.30;79.00
39665;DHT22;26679;50.872;4.332;2023-11-22T02:10:24;19.20;79.00
39665;DHT22;26679;50.872;4.332;2023-11-22T02:12:50;19.30;79.00
39665;DHT22;26679;50.872;4.332;2023-11-22T02:15:15;19.20;78.90
39665;DHT22;26679;50.872;4.332;2023-11-22T02:17:41;19.20;78.90
39665;DHT22;26679;50.872;4.332;2023-11-22T02:20:06;19.20;78.90
39665;DHT22;26679;50.872;4.332;2023-11-22T02:22:42;19.20;78.80
39665;DHT22;26679;50.872;4.332;2023-11-22T02:25:07;19.20;78.80
39665;DHT22;26679;50.872;4.332;2023-11-22T02:27:33;19.20;78.80
39665;DHT22;26679;50.872;4.332;2023-11-22T02:29:58;19.20;78.80
39665;DHT22;26679;50.872;4.332;2023-11-22T02:32:24;19.20;78.80
39665;DHT22;26679;50.872;4.332;2023-11-22T02:34:49;19.10;78.70
39665;DHT22;26679;50.872;4.332;2023-11-22T02:37:15;19.10;78.70
39665;DHT22;26679;50.872;4.332;2023-11-22T02:40:16;19.10;78.80
39665;DHT22;26679;50.872;4.332;2023-11-22T02:42:34;19.10;78.80
39665;DHT22;26679;50.872;4.332;2023-11-22T02:45:00;19.10;78.80
39665;DHT22;26679;50.872;4.332;2023-11-22T02:47:25;19.10;78.90
39665;DHT22;26679;50.872;4.332;2023-11-22T02:49:51;19.10;78.90
39665;DHT22;26679;50.872;4.332;2023-11-22T02:52:17;19.10;79.00
39665;DHT22;26679;50.872;4.332;2023-11-22T02:54:43;19.10;78.90
39665;DHT22;26679;50.872;4.332;2023-11-22T02:57:09;19.10;78.90
39665;DHT22;26679;50.872;4.332;2023-11-22T02:59:34;19.10;78.90
39665;DHT22;26679;50.872;4.332;2023-11-22T03:02:00;19.10;78.90
39665;DHT22;26679;50.872;4.332;2023-11-22T03:04:27;19.00;78.90
39665;DHT22;26679;50.872;4.332;2023-11-22T03:06:53;19.00;78.90
39665;DHT22;26679;50.872;4.332;2023-11-22T03:09:19;19.00;78.90
39665;DHT22;26679;50.872;4.332;2023-11-22T03:11:44;19.00;79.00
39665;DHT22;26679;50.872;4.332;2023-11-22T03:14:10;19.00;78.90
39665;DHT22;26679;50.872;4.332;2023-11-22T03:16:39;19.00;78.80
39665;DHT22;26679;50.872;4.332;2023-11-22T03:19:05;19.00;78.80
39665;DHT22;26679;50.872;4.332;2023-11-22T03:21:31;19.10;78.80
39665;DHT22;26679;50.872;4.332;2023-11-22T03:23:57;19.10;78.80
39665;DHT22;26679;50.872;4.332;2023-11-22T03:26:25;19.10;78.70
39665;DHT22;26679;50.872;4.332;2023-11-22T03:28:50;19.10;78.60
39665;DHT22;26679;50.872;4.332;2023-11-22T03:31:16;19.20;78.50
39665;DHT22;26679;50.872;4.332;2023-11-22T03:33:42;19.20;78.50
39665;DHT22;26679;50.872;4.332;2023-11-22T03:36:07;19.20;78.40
39665;DHT22;26679;50.872;4.332;2023-11-22T03:38:33;19.20;78.30
39665;DHT22;26679;50.872;4.332;2023-11-22T03:40:58;19.30;78.30
39665;DHT22;26679;50.872;4.332;2023-11-22T03:43:24;19.40;78.20
39665;DHT22;26679;50.872;4.332;2023-11-22T03:45:50;19.50;78.10
39665;DHT22;26679;50.872;4.332;2023-11-22T03:48:15;19.60;77.90
39665;DHT22;26679;50.872;4.332;2023-11-22T03:50:41;19.60;77.80
39665;DHT22;26679;50.872;4.332;2023-11-22T03:53:06;19.70;77.60
39665;DHT22;26679;50.872;4.332;2023-11-22T03:55:32;19.80;77.50
39665;DHT22;26679;50.872;4.332;2023-11-22T03:57:57;19.90;77.40
39665;DHT22;26679;50.872;4.332;2023-11-22T04:00:23;19.90;77.20
39665;DHT22;26679;50.872;4.332;2023-11-22T04:02:49;20.00;77.10
39665;DHT22;26679;50.872;4.332;2023-11-22T04:05:15;20.10;76.90
39665;DHT22;26679;50.872;4.332;2023-11-22T04:07:40;20.20;76.80
39665;DHT22;26679;50.872;4.332;2023-11-22T04:10:06;20.20;76.70
39665;DHT22;26679;50.872;4.332;2023-11-22T04:12:32;20.30;76.70
39665;DHT22;26679;50.872;4.332;2023-11-22T04:15:00;20.30;76.50
39665;DHT22;26679;50.872;4.332;2023-11-22T04:17:26;20.10;76.30
39665;DHT22;26679;50.872;4.332;2023-11-22T04:19:51;20.40;76.40
39665;DHT22;26679;50.872;4.332;2023-11-22T04:22:18;20.40;76.30
39665;DHT22;26679;50.872;4.332;2023-11-22T04:24:43;20.50;76.30
39665;DHT22;26679;50.872;4.332;2023-11-22T04:27:09;20.50;76.30
39665;DHT22;26679;50.872;4.332;2023-11-22T04:29:35;20.50;76.10
39665;DHT22;26679;50.872;4.332;2023-11-22T04:32:00;20.60;76.10
39665;DHT22;26679;50.872;4.332;2023-11-22T04:34:26;20.60;76.00
39665;DHT22;26679;50.872;4.332;2023-11-22T04:36:51;20.60;75.90
39665;DHT22;26679;50.872;4.332;2023-11-22T04:39:17;20.60;75.80
39665;DHT22;26679;50.872;4.332;2023-11-22T04:41:42;20.70;75.80
39665;DHT22;26679;50.872;4.332;2023-11-22T04:44:08;20.70;75.80
39665;DHT22;26679;50.872;4.332;2023-11-22T04:46:33;20.70;75.70
39665;DHT22;26679;50.872;4.332;2023-11-22T04:48:59;20.70;75.60
39665;DHT22;26679;50.872;4.332;2023-11-22T04:51:24;20.70;75.50
39665;DHT22;26679;50.872;4.332;2023-11-22T04:53:50;20.80;75.50
39665;DHT22;26679;50.872;4.332;2023-11-22T04:56:16;20.80;75.40
39665;DHT22;26679;50.872;4.332;2023-11-22T04:58:42;20.80;75.30
39665;DHT22;26679;50.872;4.332;2023-11-22T05:01:07;20.80;75.20
39665;DHT22;26679;50.872;4.332;2023-11-22T05:03:35;20.90;75.20
39665;DHT22;26679;50.872;4.332;2023-11-22T05:06:02;20.90;75.20
39665;DHT22;26679;50.872;4.332;2023-11-22T05:08:28;20.90;75.10
39665;DHT22;26679;50.872;4.332;2023-11-22T05:10:53;20.90;75.00
39665;DHT22;26679;50.872;4.332;2023-11-22T05:13:19;20.90;74.90
39665;DHT22;26679;50.872;4.332;2023-11-22T05:15:45;21.00;74.90
39665;DHT22;26679;50.872;4.332;2023-11-22T05:18:10;21.00;74.90
39665;DHT22;26679;50.872;4.332;2023-11-22T05:20:35;21.00;74.80
39665;DHT22;26679;50.872;4.332;2023-11-22T05:23:01;21.00;74.80
39665;DHT22;26679;50.872;4.332;2023-11-22T05:25:26;21.00;74.70
39665;DHT22;26679;50.872;4.332;2023-11-22T05:27:52;21.00;74.70
39665;DHT22;26679;50.872;4.332;2023-11-22T05:30:17;21.00;74.60
39665;DHT22;26679;50.872;4.332;2023-11-22T05:32:43;21.00;74.50
39665;DHT22;26679;50.872;4.332;2023-11-22T05:35:08;21.00;74.50
39665;DHT22;26679;50.872;4.332;2023-11-22T05:37:35;21.00;74.60
39665;DHT22;26679;50.872;4.332;2023-11-22T05:40:02;21.00;74.40
39665;DHT22;26679;50.872;4.332;2023-11-22T05:42:28;21.00;74.40
39665;DHT22;26679;50.872;4.332;2023-11-22T05:44:54;21.10;74.40
39665;DHT22;26679;50.872;4.332;2023-11-22T05:47:19;21.10;74.40
39665;DHT22;26679;50.872;4.332;2023-11-22T05:49:45;21.10;74.50
39665;DHT22;26679;50.872;4.332;2023-11-22T05:52:10;21.10;74.50
39665;DHT22;26679;50.872;4.332;2023-11-22T05:54:35;21.10;74.40
39665;DHT22;26679;50.872;4.332;2023-11-22T05:57:02;21.10;74.40
39665;DHT22;26679;50.872;4.332;2023-11-22T05:59:27;21.10;74.40
39665;DHT22;26679;50.872;4.332;2023-11-22T06:01:53;21.10;74.30
39665;DHT22;26679;50.872;4.332;2023-11-22T06:04:18;21.20;74.30
39665;DHT22;26679;50.872;4.332;2023-11-22T06:06:44;21.20;74.30
39665;DHT22;26679;50.872;4.332;2023-11-22T06:09:09;21.20;74.20
39665;DHT22;26679;50.872;4.332;2023-11-22T06:11:39;21.20;74.20
39665;DHT22;26679;50.872;4.332;2023-11-22T06:14:04;21.20;74.10
39665;DHT22;26679;50.872;4.332;2023-11-22T06:16:30;21.20;74.10
39665;DHT22;26679;50.872;4.332;2023-11-22T06:18:55;21.20;74.10
39665;DHT22;26679;50.872;4.332;2023-11-22T06:21:21;21.20;74.00
39665;DHT22;26679;50.872;4.332;2023-11-22T06:23:46;21.20;73.90
39665;DHT22;26679;50.872;4.332;2023-11-22T06:26:12;21.20;73.90
39665;DHT22;26679;50.872;4.332;2023-11-22T06:28:37;21.20;73.90
39665;DHT22;26679;50.872;4.332;2023-11-22T06:31:03;21.20;73.90
39665;DHT22;26679;50.872;4.332;2023-11-22T06:33:28;21.20;73.80
39665;DHT22;26679;50.872;4.332;2023-11-22T06:35:54;21.20;73.80
39665;DHT22;26679;50.872;4.332;2023-11-22T06:38:19;21.30;74.50
39665;DHT22;26679;50.872;4.332;2023-11-22T06:40:45;21.30;74.00
39665;DHT22;26679;50.872;4.332;2023-11-22T06:43:11;21.30;74.00
39665;DHT22;26679;50.872;4.332;2023-11-22T06:45:37;21.30;73.90
39665;DHT22;26679;50.872;4.332;2023-11-22T06:48:02;21.30;73.80
39665;DHT22;26679;50.872;4.332;2023-11-22T06:50:28;21.30;73.80
39665;DHT22;26679;50.872;4.332;2023-11-22T06:52:53;21.40;73.90
39665;DHT22;26679;50.872;4.332;2023-11-22T06:55:19;21.40;73.80
39665;DHT22;26679;50.872;4.332;2023-11-22T06:57:45;21.40;73.80
39665;DHT22;26679;50.872;4.332;2023-11-22T07:00:12;21.40;74.10
39665;DHT22;26679;50.872;4.332;2023-11-22T07:02:37;21.40;74.10
39665;DHT22;26679;50.872;4.332;2023-11-22T07:05:03;21.40;74.20
39665;DHT22;26679;50.872;4.332;2023-11-22T07:07:33;21.40;74.20
39665;DHT22;26679;50.872;4.332;2023-11-22T07:09:58;21.50;74.30
39665;DHT22;26679;50.872;4.332;2023-11-22T07:12:24;21.50;74.20
39665;DHT22;26679;50.872;4.332;2023-11-22T07:14:50;21.50;74.20
39665;DHT22;26679;50.872;4.332;2023-11-22T07:17:16;21.50;74.20
39665;DHT22;26679;50.872;4.332;2023-11-22T07:19:43;21.50;74.00
39665;DHT22;26679;50.872;4.332;2023-11-22T07:22:12;21.50;74.00
39665;DHT22;26679;50.872;4.332;2023-11-22T07:24:41;21.50;73.90
39665;DHT22;26679;50.872;4.332;2023-11-22T07:27:12;21.50;73.80
39665;DHT22;26679;50.872;4.332;2023-11-22T07:29:39;21.50;73.80
39665;DHT22;26679;50.872;4.332;2023-11-22T07:32:05;21.50;73.70
39665;DHT22;26679;50.872;4.332;2023-11-22T07:34:31;21.60;73.70
39665;DHT22;26679;50.872;4.332;2023-11-22T07:36:56;21.60;73.60
39665;DHT22;26679;50.872;4.332;2023-11-22T07:39:22;21.60;73.50
39665;DHT22;26679;50.872;4.332;2023-11-22T07:41:53;21.60;73.40
39665;DHT22;26679;50.872;4.332;2023-11-22T07:44:18;21.60;73.30
39665;DHT22;26679;50.872;4.332;2023-11-22T07:46:44;21.60;73.30
39665;DHT22;26679;50.872;4.332;2023-11-22T07:49:09;21.60;73.20
39665;DHT22;26679;50.872;4.332;2023-11-22T07:51:35;21.70;73.30
39665;DHT22;26679;50.872;4.332;2023-11-22T07:54:02;21.60;73.10
39665;DHT22;26679;50.872;4.332;2023-11-22T07:56:28;21.70;73.10
39665;DHT22;26679;50.872;4.332;2023-11-22T07:58:54;21.70;73.10
39665;DHT22;26679;50.872;4.332;2023-11-22T08:01:20;21.70;73.10
39665;DHT22;26679;50.872;4.332;2023-11-22T08:03:46;21.70;73.00
39665;DHT22;26679;50.872;4.332;2023-11-22T08:06:11;21.70;72.90
39665;DHT22;26679;50.872;4.332;2023-11-22T08:08:38;21.70;72.80
39665;DHT22;26679;50.872;4.332;2023-11-22T08:11:05;21.70;72.90
39665;DHT22;26679;50.872;4.332;2023-11-22T08:13:31;21.70;73.00
39665;DHT22;26679;50.872;4.332;2023-11-22T08:15:57;21.70;73.10
39665;DHT22;26679;50.872;4.332;2023-11-22T08:18:22;21.80;73.10
39665;DHT22;26679;50.872;4.332;2023-11-22T08:20:48;21.80;73.10
39665;DHT22;26679;50.872;4.332;2023-11-22T08:23:13;21.80;73.10
39665;DHT22;26679;50.872;4.332;2023-11-22T08:25:40;21.80;73.10
39665;DHT22;26679;50.872;4.332;2023-11-22T08:28:05;21.80;73.10
39665;DHT22;26679;50.872;4.332;2023-11-22T08:30:33;21.80;73.10
39665;DHT22;26679;50.872;4.332;2023-11-22T08:33:01;21.90;73.20
39665;DHT22;26679;50.872;4.332;2023-11-22T08:35:27;21.90;73.20
39665;DHT22;26679;50.872;4.332;2023-11-22T08:37:53;21.90;73.10
39665;DHT22;26679;50.872;4.332;2023-11-22T08:40:18;21.90;73.10
39665;DHT22;26679;50.872;4.332;2023-11-22T08:42:46;22.00;73.20
39665;DHT22;26679;50.872;4.332;2023-11-22T08:45:11;22.00;73.20
39665;DHT22;26679;50.872;4.332;2023-11-22T08:47:38;22.00;73.20
39665;DHT22;26679;50.872;4.332;2023-11-22T08:50:05;22.00;73.30
39665;DHT22;26679;50.872;4.332;2023-11-22T08:52:31;22.10;73.40
39665;DHT22;26679;50.872;4.332;2023-11-22T08:54:56;22.10;73.40
39665;DHT22;26679;50.872;4.332;2023-11-22T08:57:22;22.10;73.40
39665;DHT22;26679;50.872;4.332;2023-11-22T08:59:47;22.10;73.40
39665;DHT22;26679;50.872;4.332;2023-11-22T09:02:13;22.00;73.40
39665;DHT22;26679;50.872;4.332;2023-11-22T09:04:40;22.10;73.50
39665;DHT22;26679;50.872;4.332;2023-11-22T09:07:07;22.10;73.40
39665;DHT22;26679;50.872;4.332;2023-11-22T09:09:32;22.00;73.40
39665;DHT22;26679;50.872;4.332;2023-11-22T09:12:00;22.10;73.50
39665;DHT22;26679;50.872;4.332;2023-11-22T09:14:26;22.10;73.50
39665;DHT22;26679;50.872;4.332;2023-11-22T09:16:52;22.00;73.40
39665;DHT22;26679;50.872;4.332;2023-11-22T09:19:23;22.10;73.60
39665;DHT22;26679;50.872;4.332;2023-11-22T09:21:50;22.10;73.60
39665;DHT22;26679;50.872;4.332;2023-11-22T09:24:16;22.10;73.60
39665;DHT22;26679;50.872;4.332;2023-11-22T09:26:42;22.10;73.60
39665;DHT22;26679;50.872;4.332;2023-11-22T09:29:10;22.20;73.70
39665;DHT22;26679;50.872;4.332;2023-11-22T09:31:39;22.10;73.70
39665;DHT22;26679;50.872;4.332;2023-11-22T09:34:04;22.20;73.80
39665;DHT22;26679;50.872;4.332;2023-11-22T09:36:30;22.20;73.80
39665;DHT22;26679;50.872;4.332;2023-11-22T09:38:59;22.20;73.80
39665;DHT22;26679;50.872;4.332;2023-11-22T09:41:25;22.20;74.30
39665;DHT22;26679;50.872;4.332;2023-11-22T09:43:52;22.20;73.70
39665;DHT22;26679;50.872;4.332;2023-11-22T09:46:18;22.20;73.70
39665;DHT22;26679;50.872;4.332;2023-11-22T09:48:46;22.30;73.70
39665;DHT22;26679;50.872;4.332;2023-11-22T09:51:17;22.30;73.70
39665;DHT22;26679;50.872;4.332;2023-11-22T09:53:53;22.30;73.60
39665;DHT22;26679;50.872;4.332;2023-11-22T09:56:22;22.40;73.60
39665;DHT22;26679;50.872;4.332;2023-11-22T09:58:49;22.40;73.50
39665;DHT22;26679;50.872;4.332;2023-11-22T10:01:16;22.40;73.30
39665;DHT22;26679;50.872;4.332;2023-11-22T10:03:42;22.40;73.20
39665;DHT22;26679;50.872;4.332;2023-11-22T10:06:08;22.50;73.20
39665;DHT22;26679;50.872;4.332;2023-11-22T10:08:33;22.50;73.10
39665;DHT22;26679;50.872;4.332;2023-11-22T10:11:00;22.50;73.00
39665;DHT22;26679;50.872;4.332;2023-11-22T10:13:26;22.50;72.90
39665;DHT22;26679;50.872;4.332;2023-11-22T10:15:52;22.60;72.80
39665;DHT22;26679;50.872;4.332;2023-11-22T10:18:18;22.60;72.70
39665;DHT22;26679;50.872;4.332;2023-11-22T10:20:44;22.70;72.60
39665;DHT22;26679;50.872;4.332;2023-11-22T10:23:15;22.70;72.40
39665;DHT22;26679;50.872;4.332;2023-11-22T10:25:47;22.70;72.30
39665;DHT22;26679;50.872;4.332;2023-11-22T10:28:15;22.90;72.20
39665;DHT22;26679;50.872;4.332;2023-11-22T10:30:41;22.90;72.10
39665;DHT22;26679;50.872;4.332;2023-11-22T10:33:09;22.90;72.00
39665;DHT22;26679;50.872;4.332;2023-11-22T10:35:34;23.00;71.90
39665;DHT22;26679;50.872;4.332;2023-11-22T10:38:00;23.10;71.80
39665;DHT22;26679;50.872;4.332;2023-11-22T10:40:31;23.20;71.60
39665;DHT22;26679;50.872;4.332;2023-11-22T10:42:57;23.30;71.40
39665;DHT22;26679;50.872;4.332;2023-11-22T10:45:22;23.30;71.30
39665;DHT22;26679;50.872;4.332;2023-11-22T10:47:48;23.40;71.20
39665;DHT22;26679;50.872;4.332;2023-11-22T10:50:15;23.40;71.00
39665;DHT22;26679;50.872;4.332;2023-11-22T10:52:41;23.40;70.90
39665;DHT22;26679;50.872;4.332;2023-11-22T10:55:11;23.40;70.90
39665;DHT22;26679;50.872;4.332;2023-11-22T10:57:39;23.40;70.80
39665;DHT22;26679;50.872;4.332;2023-11-22T11:00:06;23.40;71.30
39665;DHT22;26679;50.872;4.332;2023-11-22T11:02:35;23.40;70.70
39665;DHT22;26679;50.872;4.332;2023-11-22T11:05:03;23.40;70.70
39665;DHT22;26679;50.872;4.332;2023-11-22T11:07:38;23.40;70.70
39665;DHT22;26679;50.872;4.332;2023-11-22T11:10:06;23.40;70.60
39665;DHT22;26679;50.872;4.332;2023-11-22T11:12:32;23.50;70.50
39665;DHT22;26679;50.872;4.332;2023-11-22T11:14:58;23.50;70.40
39665;DHT22;26679;50.872;4.332;2023-11-22T11:17:23;23.60;70.30
39665;DHT22;26679;50.872;4.332;2023-11-22T11:19:49;23.60;70.10
39665;DHT22;26679;50.872;4.332;2023-11-22T11:22:15;23.70;70.10
39665;DHT22;26679;50.872;4.332;2023-11-22T11:24:41;23.80;70.00
39665;DHT22;26679;50.872;4.332;2023-11-22T11:27:10;23.90;70.00
39665;DHT22;26679;50.872;4.332;2023-11-22T11:29:36;23.90;69.80
39665;DHT22;26679;50.872;4.332;2023-11-22T11:34:51;24.00;69.40
39665;DHT22;26679;50.872;4.332;2023-11-22T11:37:19;24.00;69.40
39665;DHT22;26679;50.872;4.332;2023-11-22T11:39:45;24.00;69.40
39665;DHT22;26679;50.872;4.332;2023-11-22T11:42:11;23.90;69.30
39665;DHT22;26679;50.872;4.332;2023-11-22T11:44:50;23.90;69.30
39665;DHT22;26679;50.872;4.332;2023-11-22T11:47:16;24.00;69.20
39665;DHT22;26679;50.872;4.332;2023-11-22T11:49:41;24.10;69.10
39665;DHT22;26679;50.872;4.332;2023-11-22T11:52:07;24.10;68.90
39665;DHT22;26679;50.872;4.332;2023-11-22T11:54:33;24.20;68.90
39665;DHT22;26679;50.872;4.332;2023-11-22T11:56:59;24.10;68.80
39665;DHT22;26679;50.872;4.332;2023-11-22T11:59:25;24.10;68.70
39665;DHT22;26679;50.872;4.332;2023-11-22T12:01:54;24.10;68.80
39665;DHT22;26679;50.872;4.332;2023-11-22T12:04:22;24.10;68.90
39665;DHT22;26679;50.872;4.332;2023-11-22T12:06:47;24.10;68.80
39665;DHT22;26679;50.872;4.332;2023-11-22T12:09:13;24.20;68.70
39665;DHT22;26679;50.872;4.332;2023-11-22T12:11:39;24.20;68.60
39665;DHT22;26679;50.872;4.332;2023-11-22T12:14:04;24.20;68.60
39665;DHT22;26679;50.872;4.332;2023-11-22T12:16:30;24.20;68.50
39665;DHT22;26679;50.872;4.332;2023-11-22T12:18:55;24.20;68.50
39665;DHT22;26679;50.872;4.332;2023-11-22T12:21:23;24.20;68.50
39665;DHT22;26679;50.872;4.332;2023-11-22T12:23:48;24.20;68.60
39665;DHT22;26679;50.872;4.332;2023-11-22T12:26:15;24.10;68.50
39665;DHT22;26679;50.872;4.332;2023-11-22T12:28:41;24.00;68.40
39665;DHT22;26679;50.872;4.332;2023-11-22T12:31:10;24.00;68.40
39665;DHT22;26679;50.872;4.332;2023-11-22T12:33:36;24.00;68.50
39665;DHT22;26679;50.872;4.332;2023-11-22T12:36:05;24.00;68.50
39665;DHT22;26679;50.872;4.332;2023-11-22T12:38:31;23.90;68.40
39665;DHT22;26679;50.872;4.332;2023-11-22T12:40:57;23.90;68.40
39665;DHT22;26679;50.872;4.332;2023-11-22T12:43:23;23.90;68.40
39665;DHT22;26679;50.872;4.332;2023-11-22T12:46:01;23.90;68.30
39665;DHT22;26679;50.872;4.332;2023-11-22T12:48:26;23.90;68.30
39665;DHT22;26679;50.872;4.332;2023-11-22T12:50:55;23.90;68.20
39665;DHT22;26679;50.872;4.332;2023-11-22T12:53:21;23.90;68.20
39665;DHT22;26679;50.872;4.332;2023-11-22T12:55:50;23.90;68.10
39665;DHT22;26679;50.872;4.332;2023-11-22T12:58:16;23.80;68.00
39665;DHT22;26679;50.872;4.332;2023-11-22T13:00:42;23.90;67.90
39665;DHT22;26679;50.872;4.332;2023-11-22T13:03:07;23.90;67.80
39665;DHT22;26679;50.872;4.332;2023-11-22T13:05:39;23.80;67.70
39665;DHT22;26679;50.872;4.332;2023-11-22T13:08:04;23.80;67.70
39665;DHT22;26679;50.872;4.332;2023-11-22T13:10:30;23.80;67.70
39665;DHT22;26679;50.872;4.332;2023-11-22T13:12:59;23.80;67.70
39665;DHT22;26679;50.872;4.332;2023-11-22T13:15:26;23.70;67.60
39665;DHT22;26679;50.872;4.332;2023-11-22T13:17:54;23.60;67.60
39665;DHT22;26679;50.872;4.332;2023-11-22T13:20:24;23.60;67.50
39665;DHT22;26679;50.872;4.332;2023-11-22T13:22:51;23.60;67.50
39665;DHT22;26679;50.872;4.332;2023-11-22T13:25:16;23.60;67.50
39665;DHT22;26679;50.872;4.332;2023-11-22T13:27:47;23.50;67.50
39665;DHT22;26679;50.872;4.332;2023-11-22T13:30:16;23.50;67.50
39665;DHT22;26679;50.872;4.332;2023-11-22T13:32:44;23.40;67.50
39665;DHT22;26679;50.872;4.332;2023-11-22T13:35:10;23.40;67.50
39665;DHT22;26679;50.872;4.332;2023-11-22T13:37:43;23.40;67.50
39665;DHT22;26679;50.872;4.332;2023-11-22T13:40:12;23.40;67.40
39665;DHT22;26679;50.872;4.332;2023-11-22T13:42:45;23.40;67.30
39665;DHT22;26679;50.872;4.332;2023-11-22T13:45:11;23.40;67.30
39665;DHT22;26679;50.872;4.332;2023-11-22T13:47:40;23.50;67.30
39665;DHT22;26679;50.872;4.332;2023-11-22T13:50:06;23.50;67.20
39665;DHT22;26679;50.872;4.332;2023-11-22T13:52:32;23.50;67.10
39665;DHT22;26679;50.872;4.332;2023-11-22T13:54:57;23.50;67.10
39665;DHT22;26679;50.872;4.332;2023-11-22T13:57:23;23.50;67.00
39665;DHT22;26679;50.872;4.332;2023-11-22T13:59:49;23.40;67.00
39665;DHT22;26679;50.872;4.332;2023-11-22T14:02:14;23.40;67.00
39665;DHT22;26679;50.872;4.332;2023-11-22T14:04:41;23.40;67.10
39665;DHT22;26679;50.872;4.332;2023-11-22T14:07:07;23.30;67.10
39665;DHT22;26679;50.872;4.332;2023-11-22T14:09:33;23.30;67.10
39665;DHT22;26679;50.872;4.332;2023-11-22T14:12:02;23.20;67.10
39665;DHT22;26679;50.872;4.332;2023-11-22T14:14:27;23.20;67.20
39665;DHT22;26679;50.872;4.332;2023-11-22T14:16:53;23.20;67.80
39665;DHT22;26679;50.872;4.332;2023-11-22T14:19:18;23.20;67.20
39665;DHT22;26679;50.872;4.332;2023-11-22T14:21:44;23.20;67.20
39665;DHT22;26679;50.872;4.332;2023-11-22T14:24:10;23.20;67.30
39665;DHT22;26679;50.872;4.332;2023-11-22T14:26:35;23.20;67.30
39665;DHT22;26679;50.872;4.332;2023-11-22T14:29:02;23.20;67.30
39665;DHT22;26679;50.872;4.332;2023-11-22T14:31:28;23.20;67.30
39665;DHT22;26679;50.872;4.332;2023-11-22T14:33:54;23.20;67.30
39665;DHT22;26679;50.872;4.332;2023-11-22T14:36:22;23.10;67.30
39665;DHT22;26679;50.872;4.332;2023-11-22T14:38:48;23.10;67.40
39665;DHT22;26679;50.872;4.332;2023-11-22T14:41:19;23.10;67.50
39665;DHT22;26679;50.872;4.332;2023-11-22T14:43:45;23.00;67.50
39665;DHT22;26679;50.872;4.332;2023-11-22T14:46:11;23.00;67.60
39665;DHT22;26679;50.872;4.332;2023-11-22T14:48:36;22.90;67.70
39665;DHT22;26679;50.872;4.332;2023-11-22T14:51:03;22.90;67.80
39665;DHT22;26679;50.872;4.332;2023-11-22T14:53:28;22.80;67.80
39665;DHT22;26679;50.872;4.332;2023-11-22T14:55:54;22.80;67.90
39665;DHT22;26679;50.872;4.332;2023-11-22T14:58:19;22.70;67.90
39665;DHT22;26679;50.872;4.332;2023-11-22T15:00:44;22.70;68.00
39665;DHT22;26679;50.872;4.332;2023-11-22T15:03:10;22.70;68.10
39665;DHT22;26679;50.872;4.332;2023-11-22T15:05:36;22.70;68.20
39665;DHT22;26679;50.872;4.332;2023-11-22T15:08:01;22.60;68.20
39665;DHT22;26679;50.872;4.332;2023-11-22T15:10:27;22.60;68.30
39665;DHT22;26679;50.872;4.332;2023-11-22T15:12:52;22.60;68.30
39665;DHT22;26679;50.872;4.332;2023-11-22T15:15:19;22.50;68.30
39665;DHT22;26679;50.872;4.332;2023-11-22T15:17:44;22.50;68.40
39665;DHT22;26679;50.872;4.332;2023-11-22T15:20:10;22.50;68.40
39665;DHT22;26679;50.872;4.332;2023-11-22T15:22:38;22.50;68.50
39665;DHT22;26679;50.872;4.332;2023-11-22T15:25:04;22.40;68.50
39665;DHT22;26679;50.872;4.332;2023-11-22T15:27:30;22.40;68.60
39665;DHT22;26679;50.872;4.332;2023-11-22T15:29:56;22.40;68.60